Time;durP1;ratioP1;P1;durP2;ratioP2;P2;SDS_P1;SDS_P2;PMS_P1;PMS_P2;Temp;Humidity;BMP_temperature;BMP_pressure;BME280_temperature;BME280_humidity;BME280_pressure;Samples;Min_cycle;Max_cycle;Signal;HPM_P1;HPM_P2
2023/04/13 00:00:42;;;;;;;1.13;1.00;;;8.80;98.00;;;;;;5052980;28;20460;-67
2023/04/13 00:03:11;;;;;;;1.30;1.00;;;8.90;98.00;;;;;;5053327;28;20525;-67
2023/04/13 00:05:40;;;;;;;1.20;1.00;;;8.90;98.00;;;;;;5053259;28;20460;-66
2023/04/13 00:08:07;;;;;;;1.20;1.10;;;8.90;98.00;;;;;;5053108;28;20461;-67
2023/04/13 00:10:35;;;;;;;1.40;1.10;;;8.90;98.00;;;;;;5052923;28;20465;-66
2023/04/13 00:13:03;;;;;;;1.20;1.00;;;8.90;98.00;;;;;;5052819;28;20492;-66
2023/04/13 00:15:33;;;;;;;1.20;1.10;;;8.90;98.00;;;;;;5053037;28;20458;-66
2023/04/13 00:18:01;;;;;;;1.30;1.00;;;8.90;98.00;;;;;;5052650;28;20464;-67
2023/04/13 00:20:31;;;;;;;1.20;1.03;;;8.90;98.00;;;;;;5052896;28;20461;-66
2023/04/13 00:22:59;;;;;;;1.40;1.00;;;8.90;98.00;;;;;;5052888;28;20871;-67
2023/04/13 00:25:28;;;;;;;1.20;1.00;;;8.80;98.00;;;;;;5051207;28;20481;-67
2023/04/13 00:27:55;;;;;;;4.80;1.30;;;8.90;98.00;;;;;;5052638;28;20937;-67
2023/04/13 00:30:22;;;;;;;2.70;1.70;;;8.80;98.00;;;;;;5052622;28;20460;-66
2023/04/13 00:32:52;;;;;;;1.20;1.00;;;8.90;98.00;;;;;;5052588;28;20840;-66
2023/04/13 00:35:23;;;;;;;1.20;1.00;;;8.80;98.00;;;;;;5052619;28;20704;-66
2023/04/13 00:37:59;;;;;;;1.20;1.00;;;8.80;98.00;;;;;;5052072;28;20461;-67
2023/04/13 00:40:28;;;;;;;1.80;1.13;;;8.90;98.00;;;;;;5052567;28;20454;-67
2023/04/13 00:42:56;;;;;;;1.10;0.90;;;8.70;98.00;;;;;;5052481;28;20482;-67
2023/04/13 00:45:23;;;;;;;1.20;1.07;;;8.60;98.00;;;;;;5052374;28;20556;-66
2023/04/13 00:47:50;;;;;;;1.20;0.90;;;8.60;98.00;;;;;;5052292;28;20457;-67
2023/04/13 00:50:19;;;;;;;1.30;1.07;;;8.70;98.00;;;;;;5052252;28;20825;-66
2023/04/13 00:52:47;;;;;;;1.20;1.07;;;8.60;98.00;;;;;;5051913;28;20577;-68
2023/04/13 00:55:19;;;;;;;1.20;1.00;;;8.60;98.00;;;;;;5052183;28;20469;-67
2023/04/13 00:57:51;;;;;;;1.30;1.00;;;8.60;98.00;;;;;;5052217;28;20471;-67
2023/04/13 01:00:19;;;;;;;1.20;1.00;;;8.60;98.00;;;;;;5052218;28;20564;-67
2023/04/13 01:02:46;;;;;;;1.37;1.00;;;8.70;98.00;;;;;;5051755;28;20465;-66
2023/04/13 01:05:15;;;;;;;1.23;1.03;;;8.70;98.00;;;;;;5051748;28;20458;-66
2023/04/13 01:07:51;;;;;;;1.20;0.90;;;8.70;98.00;;;;;;5052109;28;20454;-68
2023/04/13 01:10:25;;;;;;;1.50;1.10;;;8.70;98.00;;;;;;5051821;28;20463;-67
2023/04/13 01:13:03;;;;;;;1.20;1.00;;;8.70;98.00;;;;;;5051711;28;20493;-66
2023/04/13 01:15:33;;;;;;;1.20;1.10;;;8.60;98.00;;;;;;5051693;28;20466;-67
2023/04/13 01:18:06;;;;;;;1.20;1.00;;;8.60;98.00;;;;;;5050268;28;20945;-66
2023/04/13 01:20:35;;;;;;;1.20;1.00;;;8.60;98.00;;;;;;5051657;28;20463;-66
2023/04/13 01:23:08;;;;;;;1.10;1.00;;;8.70;98.00;;;;;;5051797;28;20804;-66
2023/04/13 01:25:40;;;;;;;1.47;1.00;;;8.60;98.00;;;;;;5051554;28;20469;-67
2023/04/13 01:28:12;;;;;;;1.20;1.10;;;8.60;98.00;;;;;;5051650;28;20458;-66
2023/04/13 01:30:40;;;;;;;1.97;1.10;;;8.60;98.00;;;;;;5050343;28;20496;-66
2023/04/13 01:33:09;;;;;;;1.20;1.03;;;8.70;98.00;;;;;;5051410;28;20866;-67
2023/04/13 01:35:37;;;;;;;1.13;0.90;;;8.60;98.00;;;;;;5051460;28;20462;-68
2023/04/13 01:38:07;;;;;;;1.30;1.20;;;8.70;98.00;;;;;;5050265;28;20465;-66
2023/04/13 01:40:39;;;;;;;1.20;1.00;;;8.70;98.00;;;;;;5051145;28;20961;-67
2023/04/13 01:43:10;;;;;;;1.20;1.03;;;8.70;98.00;;;;;;5050540;28;20823;-67
2023/04/13 01:45:45;;;;;;;1.57;1.10;;;8.70;98.00;;;;;;5050080;28;20462;-67
2023/04/13 01:48:31;;;;;;;1.20;1.00;;;8.70;98.00;;;;;;5051342;28;20492;-66
2023/04/13 01:51:03;;;;;;;1.10;1.00;;;8.60;98.00;;;;;;5050365;28;20461;-66
2023/04/13 01:53:35;;;;;;;1.37;1.10;;;8.70;98.00;;;;;;5051081;28;20497;-67
2023/04/13 01:56:04;;;;;;;1.20;1.00;;;8.60;98.00;;;;;;5051100;28;20497;-67
2023/04/13 01:58:34;;;;;;;1.20;1.10;;;8.60;98.00;;;;;;5050012;28;20493;-67
2023/04/13 02:01:06;;;;;;;1.30;1.20;;;8.70;98.00;;;;;;5051258;28;20457;-67
2023/04/13 02:03:34;;;;;;;1.83;1.20;;;8.60;98.00;;;;;;5050984;28;20964;-66
2023/04/13 02:06:02;;;;;;;1.20;1.03;;;8.40;98.00;;;;;;5050405;28;20457;-67
2023/04/13 02:08:30;;;;;;;1.40;1.00;;;8.40;98.00;;;;;;5051107;28;20457;-67
2023/04/13 02:10:59;;;;;;;1.20;1.00;;;8.40;98.00;;;;;;5050983;28;20969;-66
2023/04/13 02:13:27;;;;;;;1.30;1.00;;;8.40;98.00;;;;;;5049872;28;20483;-66
2023/04/13 02:15:54;;;;;;;1.20;1.10;;;8.50;98.00;;;;;;5050477;28;20472;-66
2023/04/13 02:18:23;;;;;;;1.10;1.00;;;8.40;98.00;;;;;;5051072;28;20858;-67
2023/04/13 02:21:00;;;;;;;2.07;1.07;;;8.30;98.00;;;;;;5050524;28;20454;-66
2023/04/13 02:23:28;;;;;;;1.20;1.00;;;8.30;98.00;;;;;;5049672;28;20541;-66
2023/04/13 02:25:55;;;;;;;1.10;1.00;;;8.30;98.00;;;;;;5050486;28;20470;-67
2023/04/13 02:28:22;;;;;;;1.70;1.20;;;8.30;98.00;;;;;;5050856;28;20461;-68
2023/04/13 02:30:49;;;;;;;1.20;1.00;;;8.30;98.00;;;;;;5051027;28;20469;-66
2023/04/13 02:33:18;;;;;;;1.60;1.13;;;8.20;98.00;;;;;;5050718;28;20482;-67
2023/04/13 02:35:46;;;;;;;1.20;1.00;;;8.20;98.00;;;;;;5050675;28;20450;-67
2023/04/13 02:38:21;;;;;;;1.20;1.00;;;8.20;98.00;;;;;;5050860;28;20464;-65
2023/04/13 02:40:48;;;;;;;1.10;0.90;;;8.20;98.00;;;;;;5050748;28;20470;-67
2023/04/13 02:43:16;;;;;;;1.80;1.27;;;8.20;98.00;;;;;;5050883;28;20515;-67
2023/04/13 02:45:45;;;;;;;1.50;1.20;;;8.20;98.00;;;;;;5050695;28;20974;-66
2023/04/13 02:48:12;;;;;;;1.60;1.10;;;8.30;98.00;;;;;;5050698;28;20523;-66
2023/04/13 02:50:39;;;;;;;1.47;1.00;;;8.20;98.00;;;;;;5050330;28;20461;-67
2023/04/13 02:53:07;;;;;;;1.40;1.00;;;8.10;98.00;;;;;;5050913;28;20573;-66
2023/04/13 02:55:35;;;;;;;1.33;1.07;;;8.10;98.00;;;;;;5050535;28;20959;-66
2023/04/13 02:58:03;;;;;;;1.20;1.10;;;8.10;98.00;;;;;;5050459;28;20452;-67
2023/04/13 03:00:31;;;;;;;1.20;1.00;;;8.10;98.00;;;;;;5050341;28;20452;-67
2023/04/13 03:02:59;;;;;;;1.40;1.00;;;8.10;98.00;;;;;;5053684;28;20566;-66
2023/04/13 03:05:27;;;;;;;1.77;1.10;;;8.10;98.00;;;;;;5054341;28;20664;-67
2023/04/13 03:07:55;;;;;;;1.20;1.00;;;8.20;98.00;;;;;;5054037;28;20493;-66
2023/04/13 03:10:24;;;;;;;1.60;1.17;;;8.20;98.00;;;;;;5054014;28;20511;-66
2023/04/13 03:12:52;;;;;;;1.30;1.10;;;8.20;98.00;;;;;;5054002;28;20511;-66
2023/04/13 03:15:19;;;;;;;1.30;1.07;;;8.20;98.00;;;;;;5053938;28;20856;-66
2023/04/13 03:17:46;;;;;;;1.17;1.00;;;8.30;98.00;;;;;;5054134;28;20458;-67
2023/04/13 03:20:15;;;;;;;1.50;1.10;;;8.30;98.00;;;;;;5054148;28;20885;-66
2023/04/13 03:22:43;;;;;;;2.10;1.17;;;8.30;98.00;;;;;;5053803;28;20539;-68
2023/04/13 03:25:11;;;;;;;1.30;1.00;;;8.30;98.00;;;;;;5053846;28;20994;-67
2023/04/13 03:27:40;;;;;;;1.57;1.17;;;8.40;98.00;;;;;;5053838;28;20469;-66
2023/04/13 03:30:09;;;;;;;1.50;1.10;;;8.50;98.00;;;;;;5053912;28;20515;-66
2023/04/13 03:32:37;;;;;;;2.53;1.13;;;8.40;98.00;;;;;;5053598;28;20460;-66
2023/04/13 03:35:04;;;;;;;1.50;1.23;;;8.40;98.00;;;;;;5053700;28;20494;-65
2023/04/13 03:37:39;;;;;;;1.97;1.20;;;8.30;98.00;;;;;;5053915;28;21025;-65
2023/04/13 03:40:09;;;;;;;1.40;1.10;;;8.30;98.00;;;;;;5054005;28;20966;-65
2023/04/13 03:42:38;;;;;;;1.50;1.03;;;8.20;98.00;;;;;;5053576;28;20468;-65
2023/04/13 03:45:07;;;;;;;1.33;1.30;;;8.20;98.00;;;;;;5053686;28;20523;-66
2023/04/13 03:47:34;;;;;;;1.20;1.00;;;8.20;98.00;;;;;;5053083;28;21119;-66
2023/04/13 03:50:02;;;;;;;1.93;1.17;;;8.10;98.00;;;;;;5053645;28;20959;-66
2023/04/13 03:52:30;;;;;;;1.27;1.10;;;8.10;98.00;;;;;;5053229;28;20458;-64
2023/04/13 03:54:57;;;;;;;1.50;1.10;;;8.10;98.00;;;;;;5053228;28;20525;-65
2023/04/13 03:57:24;;;;;;;1.37;1.07;;;8.20;98.00;;;;;;5053237;28;20461;-65
2023/04/13 03:59:53;;;;;;;1.87;1.10;;;8.30;98.00;;;;;;5053177;28;20475;-65
2023/04/13 04:02:20;;;;;;;1.30;1.10;;;8.30;98.00;;;;;;5052906;28;20515;-65
2023/04/13 04:04:47;;;;;;;1.30;1.10;;;8.30;98.00;;;;;;5053283;28;20504;-65
2023/04/13 04:07:15;;;;;;;2.83;1.40;;;8.20;98.00;;;;;;5053253;28;20463;-64
2023/04/13 04:09:42;;;;;;;1.60;1.30;;;8.20;98.00;;;;;;5053081;28;20470;-66
2023/04/13 04:12:11;;;;;;;1.40;1.10;;;8.30;98.00;;;;;;5052932;28;20458;-65
2023/04/13 04:14:38;;;;;;;1.30;1.10;;;8.20;98.00;;;;;;5051472;28;20935;-65
2023/04/13 04:17:06;;;;;;;2.13;1.10;;;8.20;98.00;;;;;;5054055;28;20469;-65
2023/04/13 04:19:34;;;;;;;1.10;0.90;;;8.20;98.00;;;;;;5053547;28;20458;-66
2023/04/13 04:22:03;;;;;;;1.20;1.00;;;8.10;98.00;;;;;;5053567;28;20527;-64
2023/04/13 04:24:30;;;;;;;1.20;1.07;;;8.00;98.00;;;;;;5053779;28;20481;-65
2023/04/13 04:26:59;;;;;;;1.20;1.10;;;8.00;98.00;;;;;;5052756;28;20480;-64
2023/04/13 04:29:32;;;;;;;1.20;1.00;;;8.00;98.00;;;;;;5053216;28;20457;-65
2023/04/13 04:32:00;;;;;;;1.27;1.10;;;7.90;98.00;;;;;;5052713;28;20468;-64
2023/04/13 04:34:30;;;;;;;1.20;1.10;;;7.90;98.00;;;;;;5052562;28;20538;-65
2023/04/13 04:36:57;;;;;;;1.30;1.20;;;7.80;98.00;;;;;;5051730;28;20461;-65
2023/04/13 04:39:25;;;;;;;1.30;1.13;;;7.80;98.00;;;;;;5053059;28;20506;-66
2023/04/13 04:41:53;;;;;;;1.77;1.10;;;7.80;98.00;;;;;;5052700;28;20985;-65
2023/04/13 04:44:23;;;;;;;1.20;1.07;;;7.80;98.00;;;;;;5052607;28;20527;-66
2023/04/13 04:46:52;;;;;;;1.30;1.00;;;7.90;98.00;;;;;;5052413;28;20489;-64
2023/04/13 04:49:20;;;;;;;1.97;1.10;;;7.80;98.00;;;;;;5052347;28;20551;-64
2023/04/13 04:51:50;;;;;;;2.60;1.30;;;7.80;98.00;;;;;;5052278;28;20461;-64
2023/04/13 04:54:18;;;;;;;1.93;1.30;;;7.90;98.00;;;;;;5052179;28;20524;-65
2023/04/13 04:56:47;;;;;;;1.30;1.00;;;7.90;98.00;;;;;;5052069;28;20492;-65
2023/04/13 04:59:14;;;;;;;1.20;1.00;;;7.90;98.00;;;;;;5052329;28;20460;-64
2023/04/13 05:01:42;;;;;;;1.20;1.00;;;8.00;98.00;;;;;;5051947;28;20465;-64
2023/04/13 05:04:09;;;;;;;1.73;1.43;;;8.10;98.00;;;;;;5052498;28;20543;-66
2023/04/13 05:06:39;;;;;;;1.33;1.10;;;8.10;98.00;;;;;;5052061;28;20458;-67
2023/04/13 05:09:08;;;;;;;1.53;1.10;;;8.10;98.00;;;;;;5052205;28;20460;-65
2023/04/13 05:11:35;;;;;;;1.20;1.10;;;8.10;98.00;;;;;;5051814;28;21008;-65
2023/04/13 05:14:02;;;;;;;1.83;1.30;;;8.20;98.00;;;;;;5052019;28;20485;-65
2023/04/13 05:16:30;;;;;;;1.20;1.17;;;8.10;98.00;;;;;;5051731;28;20468;-65
2023/04/13 05:18:59;;;;;;;1.20;1.03;;;8.10;98.00;;;;;;5051819;28;20824;-65
2023/04/13 05:21:27;;;;;;;1.20;1.00;;;8.20;98.00;;;;;;5051775;28;20458;-64
2023/04/13 05:23:55;;;;;;;7.27;1.20;;;8.20;98.00;;;;;;5051662;28;20454;-64
2023/04/13 05:26:25;;;;;;;1.23;1.00;;;8.20;98.00;;;;;;5051882;28;20468;-66
2023/04/13 05:28:52;;;;;;;1.30;1.10;;;8.30;98.00;;;;;;5051523;28;20493;-64
2023/04/13 05:31:20;;;;;;;1.20;1.00;;;8.30;98.00;;;;;;5051686;28;20469;-65
2023/04/13 05:33:47;;;;;;;1.83;1.20;;;8.40;98.00;;;;;;5051478;28;21018;-65
2023/04/13 05:36:14;;;;;;;1.30;1.20;;;8.40;98.00;;;;;;5051697;28;20462;-65
2023/04/13 05:38:41;;;;;;;1.70;1.20;;;8.30;98.00;;;;;;5051567;28;20501;-65
2023/04/13 05:41:09;;;;;;;1.20;1.10;;;8.40;98.00;;;;;;5051547;28;20495;-65
2023/04/13 05:43:37;;;;;;;1.40;1.03;;;8.30;98.00;;;;;;5051169;28;20460;-64
2023/04/13 05:46:05;;;;;;;1.27;1.13;;;8.30;98.00;;;;;;5051365;28;20777;-65
2023/04/13 05:48:33;;;;;;;1.50;1.10;;;8.30;98.00;;;;;;5051120;28;20497;-64
2023/04/13 05:51:00;;;;;;;2.67;1.50;;;8.30;98.00;;;;;;5051091;28;20475;-66
2023/04/13 05:53:27;;;;;;;5.57;1.83;;;8.40;98.00;;;;;;5051151;28;20464;-64
2023/04/13 05:55:54;;;;;;;10.53;1.50;;;8.40;98.00;;;;;;5051156;28;20462;-65
2023/04/13 05:58:25;;;;;;;1.97;1.40;;;8.50;98.00;;;;;;5051403;28;20543;-64
2023/04/13 06:00:53;;;;;;;1.20;1.00;;;8.60;98.00;;;;;;5050915;28;20457;-67
2023/04/13 06:03:21;;;;;;;3.27;1.20;;;8.50;98.00;;;;;;5051029;28;20534;-63
2023/04/13 06:05:48;;;;;;;4.90;1.10;;;8.40;98.00;;;;;;5050880;28;20452;-64
2023/04/13 06:08:15;;;;;;;2.80;1.57;;;8.40;98.00;;;;;;5051001;28;20469;-64
2023/04/13 06:10:43;;;;;;;2.80;1.60;;;8.50;98.00;;;;;;5050776;28;20853;-64
2023/04/13 06:13:13;;;;;;;1.73;1.33;;;8.50;98.00;;;;;;5051059;28;20453;-67
2023/04/13 06:15:40;;;;;;;1.87;1.20;;;8.50;98.00;;;;;;5050660;28;21021;-66
2023/04/13 06:18:08;;;;;;;1.47;1.10;;;8.50;98.00;;;;;;5050969;28;20860;-63
2023/04/13 06:20:36;;;;;;;2.33;1.20;;;8.50;98.00;;;;;;5050656;28;20960;-62
2023/04/13 06:23:04;;;;;;;1.30;1.10;;;8.60;98.00;;;;;;5049553;28;20446;-63
2023/04/13 06:25:31;;;;;;;2.03;1.20;;;8.60;98.00;;;;;;5050668;28;20458;-63
2023/04/13 06:28:00;;;;;;;1.90;1.20;;;8.70;98.00;;;;;;5050791;28;20458;-66
2023/04/13 06:30:27;;;;;;;1.20;1.10;;;8.70;98.00;;;;;;5050683;28;20494;-65
2023/04/13 06:32:54;;;;;;;1.50;1.20;;;8.60;98.00;;;;;;5050910;28;20457;-65
2023/04/13 06:35:24;;;;;;;1.20;1.20;;;8.60;98.00;;;;;;5050974;28;20488;-64
2023/04/13 06:37:51;;;;;;;1.30;1.10;;;8.50;98.00;;;;;;5054201;28;20457;-63
2023/04/13 06:40:19;;;;;;;2.20;1.13;;;8.40;98.00;;;;;;5055114;28;20463;-65
2023/04/13 06:42:46;;;;;;;3.70;1.30;;;8.30;98.00;;;;;;5054798;28;20461;-62
2023/04/13 06:45:14;;;;;;;1.20;1.00;;;8.30;98.00;;;;;;5054831;28;20460;-63
2023/04/13 06:47:41;;;;;;;1.37;1.07;;;8.40;98.00;;;;;;5054912;28;20558;-63
2023/04/13 06:50:10;;;;;;;1.63;1.30;;;8.40;98.00;;;;;;5054801;28;20525;-64
2023/04/13 06:52:41;;;;;;;1.73;1.30;;;8.50;98.00;;;;;;5054545;28;20481;-64
2023/04/13 06:55:08;;;;;;;1.37;1.17;;;8.60;98.00;;;;;;5055022;28;20492;-64
2023/04/13 06:57:35;;;;;;;1.20;1.00;;;8.70;98.00;;;;;;5054533;28;20463;-63
2023/04/13 07:00:05;;;;;;;1.57;1.20;;;8.70;98.00;;;;;;5054484;28;20514;-64
2023/04/13 07:02:32;;;;;;;1.50;1.03;;;8.80;98.00;;;;;;5053396;28;20454;-63
2023/04/13 07:04:59;;;;;;;1.93;1.17;;;9.00;98.00;;;;;;5054394;28;20464;-65
2023/04/13 07:07:26;;;;;;;2.03;1.20;;;9.10;98.00;;;;;;5054499;28;20862;-64
2023/04/13 07:09:55;;;;;;;1.20;1.00;;;9.00;98.00;;;;;;5054458;28;20473;-64
2023/04/13 07:12:23;;;;;;;1.93;1.10;;;9.00;98.00;;;;;;5054187;28;20949;-64
2023/04/13 07:14:50;;;;;;;9.10;1.30;;;8.90;98.00;;;;;;5052813;28;20489;-62
2023/04/13 07:17:17;;;;;;;1.20;1.00;;;8.90;98.00;;;;;;5053196;28;20485;-62
2023/04/13 07:19:46;;;;;;;2.03;1.37;;;8.90;98.00;;;;;;5053359;28;20460;-63
2023/04/13 07:22:14;;;;;;;1.70;1.10;;;9.00;98.00;;;;;;5054235;28;20464;-62
2023/04/13 07:24:41;;;;;;;1.20;1.00;;;8.90;98.00;;;;;;5054125;28;20449;-64
2023/04/13 07:27:10;;;;;;;2.13;1.27;;;9.00;98.00;;;;;;5053649;28;20526;-63
2023/04/13 07:29:38;;;;;;;2.07;1.20;;;8.90;98.00;;;;;;5053883;28;20881;-62
2023/04/13 07:32:07;;;;;;;1.60;1.30;;;8.90;98.00;;;;;;5053915;28;20514;-63
2023/04/13 07:34:34;;;;;;;2.90;1.20;;;9.00;98.00;;;;;;5054019;28;20585;-62
2023/04/13 07:37:01;;;;;;;4.13;1.50;;;9.10;98.00;;;;;;5054119;28;20944;-64
2023/04/13 07:39:28;;;;;;;1.20;0.97;;;9.00;98.00;;;;;;5054032;28;20458;-65
2023/04/13 07:41:56;;;;;;;1.20;1.00;;;9.00;98.00;;;;;;5053758;28;20457;-63
2023/04/13 07:44:25;;;;;;;3.73;1.50;;;9.10;98.00;;;;;;5053686;28;20457;-64
2023/04/13 07:46:55;;;;;;;2.60;1.63;;;9.30;98.00;;;;;;5052976;28;20460;-66
2023/04/13 07:49:22;;;;;;;1.20;1.10;;;9.90;98.00;;;;;;5052343;28;20536;-62
2023/04/13 07:51:49;;;;;;;1.97;1.20;;;9.90;98.00;;;;;;5052289;28;20523;-62
2023/04/13 07:54:16;;;;;;;1.60;1.20;;;9.80;98.00;;;;;;5053346;28;20464;-63
2023/04/13 07:56:43;;;;;;;1.20;1.00;;;9.60;98.00;;;;;;5053264;28;20518;-63
2023/04/13 07:59:10;;;;;;;1.30;1.00;;;9.60;98.00;;;;;;5053428;28;20572;-63
2023/04/13 08:01:40;;;;;;;1.80;1.10;;;9.60;98.00;;;;;;5053144;28;20630;-63
2023/04/13 08:04:07;;;;;;;3.87;1.60;;;9.60;98.00;;;;;;5053260;28;20474;-61
2023/04/13 08:06:34;;;;;;;1.60;1.23;;;9.50;98.00;;;;;;5052936;28;20465;-62
2023/04/13 08:09:02;;;;;;;2.00;1.37;;;9.70;98.00;;;;;;5053090;28;20840;-62
2023/04/13 08:11:29;;;;;;;1.30;1.10;;;9.80;98.00;;;;;;5052971;28;20458;-62
2023/04/13 08:13:59;;;;;;;1.50;1.10;;;10.00;98.00;;;;;;5053027;28;20457;-62
2023/04/13 08:16:32;;;;;;;1.20;1.17;;;10.00;98.00;;;;;;5052827;28;20486;-63
2023/04/13 08:19:03;;;;;;;1.90;1.10;;;10.00;98.00;;;;;;5052839;28;20465;-62
2023/04/13 08:21:31;;;;;;;2.90;1.23;;;10.10;98.00;;;;;;5052896;28;20465;-64
2023/04/13 08:23:58;;;;;;;1.90;1.43;;;10.20;98.00;;;;;;5052782;28;20518;-62
2023/04/13 08:26:26;;;;;;;3.03;1.30;;;10.40;98.00;;;;;;5052766;28;20465;-63
2023/04/13 08:28:53;;;;;;;1.77;1.77;;;10.30;98.00;;;;;;5052634;28;20456;-63
2023/04/13 08:31:20;;;;;;;1.27;1.10;;;10.40;98.00;;;;;;5051630;28;20468;-63
2023/04/13 08:33:48;;;;;;;3.20;1.20;;;10.30;98.00;;;;;;5053029;28;20465;-63
2023/04/13 08:36:17;;;;;;;2.17;1.10;;;10.20;98.00;;;;;;5052639;28;20493;-63
2023/04/13 08:38:45;;;;;;;1.50;1.10;;;10.20;98.00;;;;;;5031474;28;20620;-63
2023/04/13 08:41:13;;;;;;;1.20;1.10;;;10.30;98.00;;;;;;5032678;28;20462;-61
2023/04/13 08:43:41;;;;;;;1.20;1.10;;;10.40;98.00;;;;;;5032514;28;20481;-63
2023/04/13 08:46:08;;;;;;;2.80;1.30;;;10.50;98.00;;;;;;5032290;28;20530;-62
2023/04/13 08:48:42;;;;;;;3.83;1.50;;;10.50;98.00;;;;;;5047218;28;20503;-61
2023/04/13 08:51:10;;;;;;;4.03;1.20;;;10.60;98.00;;;;;;5052197;28;20568;-63
2023/04/13 08:53:45;;;;;;;2.87;1.50;;;10.70;98.00;;;;;;5052243;28;20458;-64
2023/04/13 08:56:15;;;;;;;5.00;1.30;;;10.80;98.00;;;;;;5050313;28;20496;-62
2023/04/13 08:58:44;;;;;;;1.40;1.00;;;10.90;98.00;;;;;;5052124;28;20452;-63
2023/04/13 09:01:13;;;;;;;2.03;1.50;;;10.70;98.00;;;;;;5052251;28;20941;-63
2023/04/13 09:03:48;;;;;;;2.70;1.40;;;10.60;98.00;;;;;;5051999;28;20460;-62
2023/04/13 09:06:20;;;;;;;2.73;1.13;;;10.60;98.00;;;;;;5052005;28;20546;-62
2023/04/13 09:08:54;;;;;;;1.20;1.10;;;10.80;98.00;;;;;;5052094;28;20461;-62
2023/04/13 09:11:22;;;;;;;2.80;2.60;;;10.80;98.00;;;;;;5052218;28;20508;-63
2023/04/13 09:13:50;;;;;;;1.97;1.10;;;10.90;98.00;;;;;;5051956;28;20861;-63
2023/04/13 09:16:18;;;;;;;5.30;1.10;;;10.80;98.00;;;;;;5052041;28;20487;-62
2023/04/13 09:18:50;;;;;;;1.67;1.23;;;10.70;98.00;;;;;;5051810;28;20971;-64
2023/04/13 09:21:18;;;;;;;3.33;1.43;;;10.40;98.00;;;;;;5051968;28;20487;-61
2023/04/13 09:23:55;;;;;;;1.30;1.20;;;10.00;98.00;;;;;;5051763;28;20529;-63
2023/04/13 09:26:23;;;;;;;1.67;1.33;;;9.90;98.00;;;;;;5051634;28;20466;-62
2023/04/13 09:28:52;;;;;;;1.50;1.20;;;9.60;98.00;;;;;;5051984;28;20983;-64
2023/04/13 09:31:20;;;;;;;2.20;1.10;;;9.50;98.00;;;;;;5052176;28;20480;-61
2023/04/13 09:33:48;;;;;;;2.33;1.30;;;9.40;98.00;;;;;;5051459;28;20454;-62
2023/04/13 09:36:18;;;;;;;4.33;1.60;;;9.20;98.00;;;;;;5051408;28;20485;-61
2023/04/13 09:38:50;;;;;;;1.30;1.10;;;9.30;98.00;;;;;;5051222;28;20490;-62
2023/04/13 09:41:28;;;;;;;1.50;1.10;;;9.50;98.00;;;;;;5051466;28;20451;-62
2023/04/13 09:43:55;;;;;;;2.80;1.10;;;9.80;98.00;;;;;;5051503;28;20461;-62
2023/04/13 09:46:22;;;;;;;1.40;1.10;;;10.00;98.00;;;;;;5050282;28;20464;-62
2023/04/13 09:48:58;;;;;;;1.73;1.30;;;10.20;98.00;;;;;;5051319;28;20980;-63
2023/04/13 09:51:26;;;;;;;8.70;1.53;;;10.60;98.00;;;;;;5051344;28;20511;-63
2023/04/13 09:53:54;;;;;;;1.77;1.27;;;11.00;98.00;;;;;;5051204;28;20454;-63
2023/04/13 09:56:23;;;;;;;2.17;1.27;;;11.50;98.00;;;;;;5050849;28;20835;-62
2023/04/13 09:58:50;;;;;;;1.20;1.10;;;11.40;98.00;;;;;;5051146;28;20544;-61
2023/04/13 10:01:18;;;;;;;1.40;1.20;;;11.70;98.00;;;;;;5051151;28;20454;-61
2023/04/13 10:03:45;;;;;;;2.23;1.20;;;12.00;98.00;;;;;;5051112;28;20952;-62
2023/04/13 10:06:14;;;;;;;1.40;1.20;;;12.10;98.00;;;;;;5050810;28;20472;-60
2023/04/13 10:08:41;;;;;;;1.57;1.23;;;12.40;98.00;;;;;;5051338;28;20547;-61
2023/04/13 10:11:13;;;;;;;2.07;1.10;;;12.20;98.00;;;;;;5050355;28;21003;-63
2023/04/13 10:13:50;;;;;;;1.47;1.10;;;12.20;98.00;;;;;;5051022;28;20544;-63
2023/04/13 10:16:54;;;;;;;1.60;1.37;;;11.90;98.00;;;;;;5050877;28;20494;-62
2023/04/13 10:19:24;;;;;;;2.53;1.20;;;11.70;98.00;;;;;;5052016;28;20495;-62
2023/04/13 10:21:53;;;;;;;8.73;1.30;;;11.60;98.00;;;;;;5051257;28;20460;-65
2023/04/13 10:24:22;;;;;;;1.37;1.07;;;11.50;98.00;;;;;;5050735;28;20463;-62
2023/04/13 10:26:53;;;;;;;1.30;1.10;;;11.70;98.00;;;;;;5050120;28;20472;-62
2023/04/13 10:29:29;;;;;;;1.57;1.20;;;11.60;98.00;;;;;;5051344;28;20458;-63
2023/04/13 10:32:01;;;;;;;1.90;1.20;;;11.30;98.00;;;;;;5050954;28;20451;-63
2023/04/13 10:34:29;;;;;;;5.07;1.27;;;11.40;98.00;;;;;;5051066;28;20468;-63
2023/04/13 10:37:02;;;;;;;1.83;1.20;;;11.20;98.00;;;;;;5050704;28;20836;-61
2023/04/13 10:39:31;;;;;;;4.43;1.47;;;11.20;98.00;;;;;;5050844;28;20951;-63
2023/04/13 10:42:06;;;;;;;1.30;1.10;;;11.20;98.00;;;;;;5049508;28;20469;-62
2023/04/13 10:44:53;;;;;;;1.40;1.10;;;11.20;98.00;;;;;;5050776;28;21047;-63
2023/04/13 10:47:22;;;;;;;7.07;1.37;;;11.20;98.00;;;;;;5051114;28;20465;-63
2023/04/13 10:49:51;;;;;;;3.33;1.20;;;11.10;98.00;;;;;;5049273;28;20470;-62
2023/04/13 10:52:18;;;;;;;2.23;1.23;;;11.10;98.00;;;;;;5050657;28;20948;-62
2023/04/13 10:54:45;;;;;;;1.60;1.20;;;11.30;98.00;;;;;;5050604;28;20460;-61
2023/04/13 10:57:13;;;;;;;1.60;1.30;;;11.20;98.00;;;;;;5050275;28;20486;-62
2023/04/13 10:59:42;;;;;;;1.33;1.30;;;11.10;98.00;;;;;;5049379;28;20861;-61
2023/04/13 11:02:13;;;;;;;1.80;1.20;;;11.10;98.00;;;;;;5050291;28;20449;-62
2023/04/13 11:04:41;;;;;;;7.13;1.40;;;11.30;98.00;;;;;;5050452;28;20458;-63
2023/04/13 11:07:12;;;;;;;1.50;1.10;;;11.40;98.00;;;;;;5050347;28;20461;-63
2023/04/13 11:09:40;;;;;;;1.50;1.20;;;11.40;98.00;;;;;;5050646;28;20465;-61
2023/04/13 11:12:08;;;;;;;1.50;1.33;;;11.70;98.00;;;;;;5050386;28;20456;-62
2023/04/13 11:14:37;;;;;;;1.80;1.20;;;11.80;98.00;;;;;;5049916;28;20481;-62
2023/04/13 11:17:06;;;;;;;1.60;1.13;;;11.80;98.00;;;;;;5049129;28;20543;-62
2023/04/13 11:19:45;;;;;;;7.13;1.30;;;11.80;98.00;;;;;;5050399;28;20551;-62
2023/04/13 11:22:16;;;;;;;1.37;1.10;;;11.70;98.00;;;;;;5050855;28;20496;-62
2023/04/13 11:24:44;;;;;;;2.23;1.10;;;11.70;98.00;;;;;;5053936;28;20518;-62
2023/04/13 11:27:17;;;;;;;1.20;1.10;;;11.70;98.00;;;;;;5053779;28;20465;-62
2023/04/13 11:29:44;;;;;;;1.73;1.20;;;11.60;98.00;;;;;;5054179;28;20462;-63
2023/04/13 11:32:18;;;;;;;1.80;1.17;;;11.70;98.00;;;;;;5053918;28;20510;-62
2023/04/13 11:34:48;;;;;;;2.80;1.47;;;11.80;98.00;;;;;;5053876;28;20553;-62
2023/04/13 11:37:16;;;;;;;1.50;1.13;;;11.90;98.00;;;;;;5053604;28;20542;-61
2023/04/13 11:39:58;;;;;;;2.07;1.20;;;12.00;98.00;;;;;;5050635;28;20844;-62
2023/04/13 11:42:25;;;;;;;2.67;1.47;;;12.10;98.00;;;;;;5044787;28;20456;-62
2023/04/13 11:44:54;;;;;;;1.73;1.17;;;12.30;98.00;;;;;;5054599;28;20590;-62
2023/04/13 11:47:21;;;;;;;1.60;1.10;;;12.40;98.00;;;;;;5053000;28;20458;-62
2023/04/13 11:49:50;;;;;;;8.03;1.40;;;12.40;98.00;;;;;;5054264;28;20461;-62
2023/04/13 11:52:17;;;;;;;1.27;1.13;;;12.40;98.00;;;;;;5054294;28;20458;-62
2023/04/13 11:54:45;;;;;;;3.07;1.37;;;12.10;98.00;;;;;;5054122;28;20467;-62
2023/04/13 11:57:14;;;;;;;1.53;1.03;;;12.00;98.00;;;;;;5054206;28;20491;-61
2023/04/13 11:59:42;;;;;;;2.23;1.47;;;11.80;98.00;;;;;;5053900;28;20518;-62
2023/04/13 12:02:09;;;;;;;1.53;1.20;;;12.10;98.00;;;;;;5054029;28;20458;-64
2023/04/13 12:04:39;;;;;;;13.50;1.43;;;12.20;98.00;;;;;;5053917;28;20534;-62
2023/04/13 12:07:12;;;;;;;2.07;1.20;;;12.20;98.00;;;;;;5052616;28;20461;-64
2023/04/13 12:09:42;;;;;;;1.60;1.20;;;12.10;98.00;;;;;;5053993;28;20480;-64
2023/04/13 12:12:16;;;;;;;1.60;1.20;;;12.00;98.00;;;;;;5052842;28;20551;-63
2023/04/13 12:14:43;;;;;;;1.47;1.17;;;12.00;98.00;;;;;;5053493;28;20465;-64
2023/04/13 12:17:11;;;;;;;2.70;1.30;;;11.80;98.00;;;;;;5053653;28;20485;-61
2023/04/13 12:19:40;;;;;;;1.73;1.30;;;11.60;98.00;;;;;;5048128;28;20529;-61
2023/04/13 12:22:08;;;;;;;1.60;1.30;;;11.40;98.00;;;;;;5033719;28;20546;-62
2023/04/13 12:24:38;;;;;;;1.60;1.13;;;11.30;98.00;;;;;;5033938;28;20466;-63
2023/04/13 12:27:06;;;;;;;4.60;1.73;;;11.20;98.00;;;;;;5032610;28;20472;-62
2023/04/13 12:29:38;;;;;;;2.67;1.43;;;10.90;98.00;;;;;;5033666;28;20466;-62
2023/04/13 12:32:10;;;;;;;2.10;1.27;;;10.60;98.00;;;;;;5033506;28;20533;-63
2023/04/13 12:34:37;;;;;;;2.13;1.37;;;10.30;98.00;;;;;;5031640;28;20512;-62
2023/04/13 12:37:04;;;;;;;7.57;1.67;;;10.20;98.00;;;;;;5033211;28;20514;-63
2023/04/13 12:39:31;;;;;;;2.17;1.53;;;10.10;98.00;;;;;;5032084;28;20465;-63
2023/04/13 12:42:01;;;;;;;3.33;1.57;;;9.80;98.00;;;;;;5033565;28;20523;-61
2023/04/13 12:44:29;;;;;;;1.30;1.30;;;9.70;98.00;;;;;;5032107;28;20799;-63
2023/04/13 12:46:56;;;;;;;3.47;1.20;;;9.50;98.00;;;;;;5033437;28;20552;-63
2023/04/13 12:49:23;;;;;;;2.33;1.30;;;9.30;98.00;;;;;;5032144;28;20855;-64
2023/04/13 12:51:50;;;;;;;2.43;1.17;;;9.30;98.00;;;;;;5032907;28;20460;-65
2023/04/13 12:54:17;;;;;;;1.40;1.27;;;9.50;98.00;;;;;;5033225;28;20463;-62
2023/04/13 12:56:44;;;;;;;1.33;1.20;;;9.50;98.00;;;;;;5032972;28;20534;-63
2023/04/13 12:59:15;;;;;;;1.20;1.00;;;9.60;98.00;;;;;;5031907;28;20454;-62
2023/04/13 13:01:42;;;;;;;4.90;1.50;;;9.80;98.00;;;;;;5031589;28;20490;-63